Pagrindinis puslapis
METAR-TAF:

METAR-TAF

Oro uostai :

Leknes, Norvegija

platuma: 68-09N, ilguma: 013-37E, Aukštis: 2 m

Dabartinis oras

Ataskaita buvo paskelbta 1 valandą ir 6 minutes, ne 14:20 UTC
Vėjas 1 kt nuo kintamojo kryptimis
Temperatūra -2°C
Drėgmė 80%
Slėgis 1012 hPa
Matomumas 10 km arba daugiau
Mažai debesys ne aukštis 3000 ft
Išsisklaidę debesys ne aukštis 15000 ft

METAR: ENLK 231420Z VRB01KT 9999 FEW030 SCT150 M02/M05 Q1012

Laikas: 17:26 (15:26 UTC)


TAF: trūkstamas

Orai ataskaitas ir orų prognozės (METAR, TAF).

turimą stotys yra geltonos ir raudonos taškus žemėlapyje.

Perkelti pele per norėdami pamatyti stoties vardą.

Tada spustelėkite, norėdami matyti oro stebėjimo ir prognozės.

Norėdami pakeisti žemėlapį: spustelėkite ant žalios mygtukų su juodo kryžiaus žemyn,; žalią mygtuką su brūkšneliu, jei norite nutolinti; arba žalių rodyklių gretimoms žemėlapius.


METAR-TAF: